Time,TemperatureF,DewpointF,PressureIn,WindDirection,WindDirectionDegrees,WindSpeedMPH,WindSpeedGustMPH,Humidity,HourlyPrecipIn,Conditions,Clouds,dailyrainin,SolarRadiationWatts/m^2,SoftwareType,DateUTC
2013-06-06 00:03:00,54.0,51.0,-100.00,NW,315,2.0,3.0,91,0.00,,,0.00,0.000000,,2013-06-06 04:03:00,
2013-06-06 00:13:00,54.0,51.0,-100.00,NW,315,2.0,3.0,91,0.00,,,0.00,0.000000,,2013-06-06 04:13:00,
2013-06-06 00:33:00,52.0,51.0,-100.00,NNE,13,1.0,3.0,95,0.00,,,0.00,0.000000,,2013-06-06 04:33:00,
2013-06-06 00:42:00,52.0,51.0,-100.00,NNE,13,1.0,3.0,95,0.00,,,0.00,0.000000,,2013-06-06 04:42:00,
2013-06-06 00:53:00,52.0,51.0,-100.00,NNE,13,1.0,3.0,95,0.00,,,0.00,0.000000,,2013-06-06 04:53:00,
2013-06-06 01:02:00,52.0,51.0,-100.00,NNE,13,1.0,3.0,95,0.00,,,0.00,0.000000,,2013-06-06 05:02:00,
2013-06-06 01:12:00,52.0,51.0,-100.00,NNE,13,1.0,3.0,95,0.00,,,0.00,0.000000,,2013-06-06 05:12:00,
2013-06-06 01:32:00,49.0,46.0,-100.00,West,277,2.0,5.0,91,0.00,,,0.00,0.000000,,2013-06-06 05:32:00,
2013-06-06 01:42:00,49.0,46.0,-100.00,West,277,2.0,5.0,91,0.00,,,0.00,0.000000,,2013-06-06 05:42:00,
2013-06-06 01:52:00,49.0,46.0,-100.00,West,277,2.0,5.0,91,0.00,,,0.00,0.000000,,2013-06-06 05:52:00,
2013-06-06 02:02:00,49.0,46.0,-100.00,West,277,2.0,5.0,91,0.00,,,0.00,0.000000,,2013-06-06 06:02:00,
2013-06-06 02:12:00,49.0,46.0,-100.00,West,277,2.0,5.0,91,0.00,,,0.00,0.000000,,2013-06-06 06:12:00,
2013-06-06 02:33:00,49.0,48.0,-100.00,SW,214,1.0,2.0,97,0.00,,,0.00,0.000000,,2013-06-06 06:33:00,
2013-06-06 02:42:00,49.0,48.0,-100.00,SW,214,1.0,2.0,97,0.00,,,0.00,0.000000,,2013-06-06 06:42:00,
2013-06-06 02:52:00,49.0,48.0,-100.00,SW,214,1.0,2.0,97,0.00,,,0.00,0.000000,,2013-06-06 06:52:00,
2013-06-06 03:02:00,49.0,48.0,-100.00,SW,214,1.0,2.0,97,0.00,,,0.00,0.000000,,2013-06-06 07:02:00,
2013-06-06 03:12:00,49.0,48.0,-100.00,SW,214,1.0,2.0,97,0.00,,,0.00,0.000000,,2013-06-06 07:12:00,
2013-06-06 03:33:00,49.0,48.0,-100.00,North,351,1.0,3.0,96,0.00,,,0.00,0.000000,,2013-06-06 07:33:00,
2013-06-06 03:42:00,49.0,48.0,-100.00,North,351,1.0,3.0,96,0.00,,,0.00,0.000000,,2013-06-06 07:42:00,
2013-06-06 03:52:00,49.0,48.0,-100.00,North,351,1.0,3.0,96,0.00,,,0.00,0.000000,,2013-06-06 07:52:00,
2013-06-06 04:02:00,49.0,48.0,-100.00,North,351,1.0,3.0,96,0.00,,,0.00,0.000000,,2013-06-06 08:02:00,
2013-06-06 04:12:00,49.0,48.0,-100.00,North,351,1.0,3.0,96,0.00,,,0.00,0.000000,,2013-06-06 08:12:00,
2013-06-06 04:32:00,48.0,47.0,-100.00,North,9,1.0,2.0,97,0.00,,,0.00,0.000000,,2013-06-06 08:32:00,
2013-06-06 04:42:00,48.0,47.0,-100.00,North,9,1.0,2.0,97,0.00,,,0.00,0.000000,,2013-06-06 08:42:00,
2013-06-06 04:52:00,48.0,47.0,-100.00,North,9,1.0,2.0,97,0.00,,,0.00,0.000000,,2013-06-06 08:52:00,
2013-06-06 05:02:00,48.0,47.0,-100.00,North,9,1.0,2.0,97,0.00,,,0.00,0.000000,,2013-06-06 09:02:00,
2013-06-06 05:12:00,48.0,47.0,-100.00,North,9,1.0,2.0,97,0.00,,,0.00,0.000000,,2013-06-06 09:12:00,
2013-06-06 05:33:00,46.0,45.0,-100.00,ENE,75,1.0,3.0,98,0.00,,,0.00,1.000000,,2013-06-06 09:33:00,
2013-06-06 05:43:00,46.0,45.0,-100.00,ENE,75,1.0,3.0,98,0.00,,,0.00,1.000000,,2013-06-06 09:43:00,
2013-06-06 05:53:00,46.0,45.0,-100.00,ENE,75,1.0,3.0,98,0.00,,,0.00,1.000000,,2013-06-06 09:53:00,
2013-06-06 06:03:00,46.0,45.0,-100.00,ENE,75,1.0,3.0,98,0.00,,,0.00,1.000000,,2013-06-06 10:03:00,
2013-06-06 06:12:00,46.0,45.0,-100.00,ENE,75,1.0,3.0,98,0.00,,,0.00,1.000000,,2013-06-06 10:12:00,
2013-06-06 06:33:00,46.0,45.0,-100.00,North,359,1.0,3.0,98,0.00,,,0.00,24.000000,,2013-06-06 10:33:00,
2013-06-06 06:42:00,46.0,45.0,-100.00,North,359,1.0,3.0,98,0.00,,,0.00,24.000000,,2013-06-06 10:42:00,
2013-06-06 06:53:00,46.0,45.0,-100.00,North,359,1.0,3.0,98,0.00,,,0.00,24.000000,,2013-06-06 10:53:00,
2013-06-06 07:02:00,46.0,45.0,-100.00,North,359,1.0,3.0,98,0.00,,,0.00,24.000000,,2013-06-06 11:02:00,
2013-06-06 07:12:00,46.0,45.0,-100.00,North,359,1.0,3.0,98,0.00,,,0.00,24.000000,,2013-06-06 11:12:00,
2013-06-06 07:32:00,52.0,51.0,-100.00,SSE,152,2.0,3.0,96,0.00,,,0.00,129.000000,,2013-06-06 11:32:00,
2013-06-06 07:42:00,52.0,51.0,-100.00,SSE,152,2.0,3.0,96,0.00,,,0.00,129.000000,,2013-06-06 11:42:00,
2013-06-06 07:52:00,52.0,51.0,-100.00,SSE,152,2.0,3.0,96,0.00,,,0.00,129.000000,,2013-06-06 11:52:00,
2013-06-06 08:03:00,52.0,51.0,-100.00,SSE,152,2.0,3.0,96,0.00,,,0.00,129.000000,,2013-06-06 12:03:00,
2013-06-06 08:13:00,52.0,51.0,-100.00,SSE,152,2.0,3.0,96,0.00,,,0.00,129.000000,,2013-06-06 12:13:00,
2013-06-06 08:33:00,62.0,51.0,-100.00,ENE,61,2.0,4.0,66,0.00,,,0.00,325.000000,,2013-06-06 12:33:00,
2013-06-06 09:03:00,62.0,51.0,-100.00,ENE,61,2.0,4.0,66,0.00,,,0.00,325.000000,,2013-06-06 13:03:00,
2013-06-06 09:13:00,62.0,51.0,-100.00,ENE,61,2.0,4.0,66,0.00,,,0.00,325.000000,,2013-06-06 13:13:00,
2013-06-06 09:43:00,63.0,49.0,-100.00,NNE,31,2.0,4.0,60,0.00,,,0.00,330.000000,,2013-06-06 13:43:00,
2013-06-06 09:53:00,63.0,49.0,-100.00,NNE,31,2.0,4.0,60,0.00,,,0.00,330.000000,,2013-06-06 13:53:00,
2013-06-06 10:03:00,63.0,49.0,-100.00,NNE,31,2.0,4.0,60,0.00,,,0.00,330.000000,,2013-06-06 14:03:00,
2013-06-06 10:13:00,63.0,49.0,-100.00,NNE,31,2.0,4.0,60,0.00,,,0.00,330.000000,,2013-06-06 14:13:00,
2013-06-06 10:33:00,70.0,49.0,-100.00,NNE,16,3.0,7.0,47,0.00,,,0.00,517.000000,,2013-06-06 14:33:00,
2013-06-06 10:43:00,70.0,49.0,-100.00,NNE,16,3.0,7.0,47,0.00,,,0.00,517.000000,,2013-06-06 14:43:00,
2013-06-06 10:53:00,70.0,49.0,-100.00,NNE,16,3.0,7.0,47,0.00,,,0.00,517.000000,,2013-06-06 14:53:00,
2013-06-06 11:03:00,70.0,49.0,-100.00,NNE,16,3.0,7.0,47,0.00,,,0.00,517.000000,,2013-06-06 15:03:00,
2013-06-06 11:13:00,70.0,49.0,-100.00,NNE,16,3.0,7.0,47,0.00,,,0.00,517.000000,,2013-06-06 15:13:00,
2013-06-06 12:34:00,74.0,49.0,-100.00,SSE,149,6.0,18.0,41,-99.99,,,0.00,718.000000,,2013-06-06 16:34:00,
2013-06-06 12:44:00,74.0,49.0,-100.00,SSE,149,6.0,18.0,41,-99.99,,,0.00,718.000000,,2013-06-06 16:44:00,
2013-06-06 12:53:00,74.0,49.0,-100.00,SSE,149,6.0,18.0,41,-99.99,,,0.00,718.000000,,2013-06-06 16:53:00,
2013-06-06 13:03:00,74.0,49.0,-100.00,SSE,149,6.0,18.0,41,-99.99,,,0.00,718.000000,,2013-06-06 17:03:00,
2013-06-06 13:13:00,74.0,49.0,-100.00,SSE,149,6.0,18.0,41,-99.99,,,0.00,718.000000,,2013-06-06 17:13:00,
2013-06-06 13:33:00,73.0,47.0,-100.00,SE,144,7.0,14.0,40,0.00,,,0.00,749.000000,,2013-06-06 17:33:00,
2013-06-06 13:43:00,73.0,47.0,-100.00,SE,144,7.0,14.0,40,0.00,,,0.00,749.000000,,2013-06-06 17:43:00,
2013-06-06 13:53:00,73.0,47.0,-100.00,SE,144,7.0,14.0,40,0.00,,,0.00,749.000000,,2013-06-06 17:53:00,
2013-06-06 14:03:00,73.0,47.0,-100.00,SE,144,7.0,14.0,40,0.00,,,0.00,749.000000,,2013-06-06 18:03:00,
2013-06-06 14:13:00,73.0,47.0,-100.00,SE,144,7.0,14.0,40,0.00,,,0.00,749.000000,,2013-06-06 18:13:00,
2013-06-06 14:33:00,71.0,47.0,-100.00,South,171,4.0,12.0,43,0.00,,,0.00,457.000000,,2013-06-06 18:33:00,
2013-06-06 14:43:00,71.0,47.0,-100.00,South,171,4.0,12.0,43,0.00,,,0.00,457.000000,,2013-06-06 18:43:00,
2013-06-06 14:53:00,71.0,47.0,-100.00,South,171,4.0,12.0,43,0.00,,,0.00,457.000000,,2013-06-06 18:53:00,
2013-06-06 15:03:00,71.0,47.0,-100.00,South,171,4.0,12.0,43,0.00,,,0.00,457.000000,,2013-06-06 19:03:00,
2013-06-06 15:13:00,71.0,47.0,-100.00,South,171,4.0,12.0,43,0.00,,,0.00,457.000000,,2013-06-06 19:13:00,
2013-06-06 15:43:00,69.0,46.0,-100.00,SW,221,5.0,13.0,44,0.00,,,0.00,242.000000,,2013-06-06 19:43:00,
2013-06-06 15:53:00,69.0,46.0,-100.00,SW,221,5.0,13.0,44,0.00,,,0.00,242.000000,,2013-06-06 19:53:00,
2013-06-06 16:03:00,69.0,46.0,-100.00,SW,221,5.0,13.0,44,0.00,,,0.00,242.000000,,2013-06-06 20:03:00,
2013-06-06 16:13:00,69.0,46.0,-100.00,SW,221,5.0,13.0,44,0.00,,,0.00,242.000000,,2013-06-06 20:13:00,
2013-06-06 16:33:00,68.0,48.0,-100.00,South,177,3.0,10.0,49,0.00,,,0.00,145.000000,,2013-06-06 20:33:00,
2013-06-06 16:43:00,68.0,48.0,-100.00,South,177,3.0,10.0,49,0.00,,,0.00,145.000000,,2013-06-06 20:43:00,
2013-06-06 16:53:00,68.0,48.0,-100.00,South,177,3.0,10.0,49,0.00,,,0.00,145.000000,,2013-06-06 20:53:00,
2013-06-06 17:03:00,68.0,48.0,-100.00,South,177,3.0,10.0,49,0.00,,,0.00,145.000000,,2013-06-06 21:03:00,
2013-06-06 17:13:00,68.0,48.0,-100.00,South,177,3.0,10.0,49,0.00,,,0.00,145.000000,,2013-06-06 21:13:00,
2013-06-06 17:33:00,68.0,51.0,-100.00,SE,144,4.0,11.0,54,0.00,,,0.00,152.000000,,2013-06-06 21:33:00,
2013-06-06 17:44:00,68.0,51.0,-100.00,SE,144,4.0,11.0,54,0.00,,,0.00,152.000000,,2013-06-06 21:44:00,
2013-06-06 17:53:00,68.0,51.0,-100.00,SE,144,4.0,11.0,54,0.00,,,0.00,152.000000,,2013-06-06 21:53:00,
2013-06-06 18:03:00,68.0,51.0,-100.00,SE,144,4.0,11.0,54,0.00,,,0.00,152.000000,,2013-06-06 22:03:00,
2013-06-06 18:13:00,68.0,51.0,-100.00,SE,144,4.0,11.0,54,0.00,,,0.00,152.000000,,2013-06-06 22:13:00,
2013-06-06 18:33:00,66.0,48.0,-100.00,South,186,4.0,10.0,53,0.00,,,0.00,64.000000,,2013-06-06 22:33:00,
2013-06-06 18:43:00,66.0,48.0,-100.00,South,186,4.0,10.0,53,0.00,,,0.00,64.000000,,2013-06-06 22:43:00,
2013-06-06 18:53:00,66.0,48.0,-100.00,South,186,4.0,10.0,53,0.00,,,0.00,64.000000,,2013-06-06 22:53:00,
2013-06-06 19:03:00,66.0,48.0,-100.00,South,186,4.0,10.0,53,0.00,,,0.00,64.000000,,2013-06-06 23:03:00,
2013-06-06 19:13:00,66.0,48.0,-100.00,South,186,4.0,10.0,53,0.00,,,0.00,64.000000,,2013-06-06 23:13:00,
2013-06-06 19:33:00,66.0,47.0,-100.00,SW,234,4.0,9.0,50,0.00,,,0.00,59.000000,,2013-06-06 23:33:00,
2013-06-06 19:43:00,66.0,47.0,-100.00,SW,234,4.0,9.0,50,0.00,,,0.00,59.000000,,2013-06-06 23:43:00,
2013-06-06 19:52:00,66.0,47.0,-100.00,SW,234,4.0,9.0,50,0.00,,,0.00,59.000000,,2013-06-06 23:52:00,
2013-06-06 20:02:00,66.0,47.0,-100.00,SW,234,4.0,9.0,50,0.00,,,0.00,59.000000,,2013-06-07 00:02:00,
2013-06-06 20:13:00,66.0,47.0,-100.00,SW,234,4.0,9.0,50,0.00,,,0.00,59.000000,,2013-06-07 00:13:00,
2013-06-06 21:33:00,59.0,47.0,-100.00,East,83,5.0,9.0,65,-99.99,,,0.00,1.000000,,2013-06-07 01:33:00,
2013-06-06 21:42:00,59.0,47.0,-100.00,East,83,5.0,9.0,65,-99.99,,,0.00,1.000000,,2013-06-07 01:42:00,
2013-06-06 21:53:00,59.0,47.0,-100.00,East,83,5.0,9.0,65,-99.99,,,0.00,1.000000,,2013-06-07 01:53:00,
2013-06-06 22:02:00,59.0,47.0,-100.00,East,83,5.0,9.0,65,-99.99,,,0.00,1.000000,,2013-06-07 02:02:00,
2013-06-06 22:12:00,59.0,47.0,-100.00,East,83,5.0,9.0,65,-99.99,,,0.00,1.000000,,2013-06-07 02:12:00,
2013-06-06 22:32:00,54.0,51.0,-100.00,WSW,258,2.0,9.0,90,0.01,,,0.01,0.000000,,2013-06-07 02:32:00,
2013-06-06 22:42:00,54.0,51.0,-100.00,WSW,258,2.0,9.0,90,0.01,,,0.01,0.000000,,2013-06-07 02:42:00,
2013-06-06 22:52:00,54.0,51.0,-100.00,WSW,258,2.0,9.0,90,0.01,,,0.01,0.000000,,2013-06-07 02:52:00,
2013-06-06 23:02:00,54.0,51.0,-100.00,WSW,258,2.0,9.0,90,0.01,,,0.01,0.000000,,2013-06-07 03:02:00,
2013-06-06 23:12:00,54.0,51.0,-100.00,WSW,258,2.0,9.0,90,0.01,,,0.01,0.000000,,2013-06-07 03:12:00,
2013-06-06 23:33:00,54.0,53.0,-100.00,North,8,2.0,4.0,96,0.03,,,0.04,0.000000,,2013-06-07 03:33:00,
2013-06-06 23:44:00,54.0,53.0,-100.00,North,8,2.0,4.0,96,0.03,,,0.04,0.000000,,2013-06-07 03:44:00,
2013-06-06 23:53:00,54.0,53.0,-100.00,North,8,2.0,4.0,96,0.03,,,0.04,0.000000,,2013-06-07 03:53:00,